sensor_id;sensor_type;location;lat;lon;timestamp;P1;durP1;ratioP1;P2;durP2;ratioP2
27618;SDS011;15039;50.830;4.730;2022-09-17T00:00:43;6.88;;;1.60;;
27618;SDS011;15039;50.830;4.730;2022-09-17T00:05:45;9.07;;;1.38;;
27618;SDS011;15039;50.830;4.730;2022-09-17T00:08:11;7.80;;;1.67;;
27618;SDS011;15039;50.830;4.730;2022-09-17T00:10:39;5.57;;;1.98;;
27618;SDS011;15039;50.830;4.730;2022-09-17T00:13:08;3.78;;;1.20;;
27618;SDS011;15039;50.830;4.730;2022-09-17T00:15:39;6.00;;;1.63;;
27618;SDS011;15039;50.830;4.730;2022-09-17T00:18:05;5.85;;;1.40;;
27618;SDS011;15039;50.830;4.730;2022-09-17T00:20:31;4.57;;;1.58;;
27618;SDS011;15039;50.830;4.730;2022-09-17T00:23:01;5.75;;;1.23;;
27618;SDS011;15039;50.830;4.730;2022-09-17T00:25:26;7.25;;;1.70;;
27618;SDS011;15039;50.830;4.730;2022-09-17T00:27:52;7.68;;;1.73;;
27618;SDS011;15039;50.830;4.730;2022-09-17T00:30:19;3.90;;;1.10;;
27618;SDS011;15039;50.830;4.730;2022-09-17T00:32:44;9.85;;;1.50;;
27618;SDS011;15039;50.830;4.730;2022-09-17T00:35:10;5.22;;;1.20;;
27618;SDS011;15039;50.830;4.730;2022-09-17T00:37:35;3.97;;;1.30;;
27618;SDS011;15039;50.830;4.730;2022-09-17T00:40:04;6.95;;;1.70;;
27618;SDS011;15039;50.830;4.730;2022-09-17T00:42:33;6.82;;;1.80;;
27618;SDS011;15039;50.830;4.730;2022-09-17T00:44:58;5.93;;;1.63;;
27618;SDS011;15039;50.830;4.730;2022-09-17T00:47:28;5.15;;;1.58;;
27618;SDS011;15039;50.830;4.730;2022-09-17T00:57:43;5.70;;;1.75;;
27618;SDS011;15039;50.830;4.730;2022-09-17T01:00:14;2.75;;;1.20;;
27618;SDS011;15039;50.830;4.730;2022-09-17T01:02:43;6.80;;;1.70;;
27618;SDS011;15039;50.830;4.730;2022-09-17T01:05:11;8.90;;;2.33;;
27618;SDS011;15039;50.830;4.730;2022-09-17T01:16:30;6.35;;;1.60;;
27618;SDS011;15039;50.830;4.730;2022-09-17T01:25:16;5.22;;;1.65;;
27618;SDS011;15039;50.830;4.730;2022-09-17T01:34:16;11.45;;;1.70;;
27618;SDS011;15039;50.830;4.730;2022-09-17T01:37:18;6.88;;;1.50;;
27618;SDS011;15039;50.830;4.730;2022-09-17T01:40:16;8.35;;;1.35;;
27618;SDS011;15039;50.830;4.730;2022-09-17T01:42:56;5.90;;;1.27;;
27618;SDS011;15039;50.830;4.730;2022-09-17T01:45:25;6.00;;;1.48;;
27618;SDS011;15039;50.830;4.730;2022-09-17T01:48:08;4.38;;;1.35;;
27618;SDS011;15039;50.830;4.730;2022-09-17T01:50:57;8.88;;;1.92;;
27618;SDS011;15039;50.830;4.730;2022-09-17T01:53:42;6.82;;;1.38;;
27618;SDS011;15039;50.830;4.730;2022-09-17T01:56:15;2.95;;;1.10;;
27618;SDS011;15039;50.830;4.730;2022-09-17T01:58:50;5.45;;;1.33;;
27618;SDS011;15039;50.830;4.730;2022-09-17T02:01:29;8.13;;;1.20;;
27618;SDS011;15039;50.830;4.730;2022-09-17T02:04:04;6.10;;;1.20;;
27618;SDS011;15039;50.830;4.730;2022-09-17T02:06:44;3.45;;;1.15;;
27618;SDS011;15039;50.830;4.730;2022-09-17T02:09:18;8.45;;;1.60;;
27618;SDS011;15039;50.830;4.730;2022-09-17T02:11:53;5.03;;;1.38;;
27618;SDS011;15039;50.830;4.730;2022-09-17T02:14:25;9.10;;;1.70;;
27618;SDS011;15039;50.830;4.730;2022-09-17T02:16:55;9.27;;;2.25;;
27618;SDS011;15039;50.830;4.730;2022-09-17T02:19:31;7.22;;;1.40;;
27618;SDS011;15039;50.830;4.730;2022-09-17T02:22:08;4.13;;;1.40;;
27618;SDS011;15039;50.830;4.730;2022-09-17T02:30:32;5.07;;;2.13;;
27618;SDS011;15039;50.830;4.730;2022-09-17T02:32:58;7.72;;;1.90;;
27618;SDS011;15039;50.830;4.730;2022-09-17T02:35:29;7.50;;;1.63;;
27618;SDS011;15039;50.830;4.730;2022-09-17T02:37:56;8.43;;;1.95;;
27618;SDS011;15039;50.830;4.730;2022-09-17T02:40:22;4.45;;;1.80;;
27618;SDS011;15039;50.830;4.730;2022-09-17T02:48:27;9.98;;;2.28;;
27618;SDS011;15039;50.830;4.730;2022-09-17T02:51:22;12.30;;;2.78;;
27618;SDS011;15039;50.830;4.730;2022-09-17T03:03:05;8.10;;;1.48;;
27618;SDS011;15039;50.830;4.730;2022-09-17T03:05:29;17.27;;;2.22;;
27618;SDS011;15039;50.830;4.730;2022-09-17T03:07:58;9.18;;;1.80;;
27618;SDS011;15039;50.830;4.730;2022-09-17T03:10:25;10.60;;;2.00;;
27618;SDS011;15039;50.830;4.730;2022-09-17T03:12:57;6.53;;;1.65;;
27618;SDS011;15039;50.830;4.730;2022-09-17T03:15:24;7.47;;;1.73;;
27618;SDS011;15039;50.830;4.730;2022-09-17T03:17:50;7.30;;;2.28;;
27618;SDS011;15039;50.830;4.730;2022-09-17T03:20:15;6.38;;;2.00;;
27618;SDS011;15039;50.830;4.730;2022-09-17T03:22:41;9.80;;;1.90;;
27618;SDS011;15039;50.830;4.730;2022-09-17T03:25:08;8.55;;;1.50;;
27618;SDS011;15039;50.830;4.730;2022-09-17T03:27:35;10.05;;;2.95;;
27618;SDS011;15039;50.830;4.730;2022-09-17T03:30:00;9.18;;;2.58;;
27618;SDS011;15039;50.830;4.730;2022-09-17T03:32:26;9.40;;;1.95;;
27618;SDS011;15039;50.830;4.730;2022-09-17T03:34:51;10.27;;;2.47;;
27618;SDS011;15039;50.830;4.730;2022-09-17T03:37:18;7.95;;;2.00;;
27618;SDS011;15039;50.830;4.730;2022-09-17T03:39:44;7.95;;;2.00;;
27618;SDS011;15039;50.830;4.730;2022-09-17T03:42:10;15.60;;;2.85;;
27618;SDS011;15039;50.830;4.730;2022-09-17T03:44:35;8.70;;;1.52;;
27618;SDS011;15039;50.830;4.730;2022-09-17T03:47:01;6.65;;;1.85;;
27618;SDS011;15039;50.830;4.730;2022-09-17T03:49:27;6.40;;;1.77;;
27618;SDS011;15039;50.830;4.730;2022-09-17T03:51:52;10.80;;;2.13;;
27618;SDS011;15039;50.830;4.730;2022-09-17T03:54:18;7.45;;;2.03;;
27618;SDS011;15039;50.830;4.730;2022-09-17T03:56:44;7.40;;;1.58;;
27618;SDS011;15039;50.830;4.730;2022-09-17T03:59:10;11.98;;;2.90;;
27618;SDS011;15039;50.830;4.730;2022-09-17T04:01:35;6.68;;;2.10;;
27618;SDS011;15039;50.830;4.730;2022-09-17T04:04:02;8.00;;;2.20;;
27618;SDS011;15039;50.830;4.730;2022-09-17T04:06:28;8.85;;;1.73;;
27618;SDS011;15039;50.830;4.730;2022-09-17T04:08:54;11.55;;;3.38;;
27618;SDS011;15039;50.830;4.730;2022-09-17T04:11:20;10.57;;;2.50;;
27618;SDS011;15039;50.830;4.730;2022-09-17T04:13:46;11.65;;;2.00;;
27618;SDS011;15039;50.830;4.730;2022-09-17T04:16:12;6.05;;;1.90;;
27618;SDS011;15039;50.830;4.730;2022-09-17T04:18:38;9.43;;;2.30;;
27618;SDS011;15039;50.830;4.730;2022-09-17T04:21:03;5.40;;;1.92;;
27618;SDS011;15039;50.830;4.730;2022-09-17T04:23:30;13.93;;;2.10;;
27618;SDS011;15039;50.830;4.730;2022-09-17T04:25:55;10.63;;;2.05;;
27618;SDS011;15039;50.830;4.730;2022-09-17T04:28:21;8.18;;;1.67;;
27618;SDS011;15039;50.830;4.730;2022-09-17T04:30:47;8.13;;;1.90;;
27618;SDS011;15039;50.830;4.730;2022-09-17T04:33:13;10.80;;;2.42;;
27618;SDS011;15039;50.830;4.730;2022-09-17T04:35:39;11.10;;;2.92;;
27618;SDS011;15039;50.830;4.730;2022-09-17T04:38:04;15.45;;;2.42;;
27618;SDS011;15039;50.830;4.730;2022-09-17T04:40:31;20.88;;;3.63;;
27618;SDS011;15039;50.830;4.730;2022-09-17T04:42:57;9.73;;;2.53;;
27618;SDS011;15039;50.830;4.730;2022-09-17T04:45:24;5.97;;;1.63;;
27618;SDS011;15039;50.830;4.730;2022-09-17T04:47:50;10.15;;;2.13;;
27618;SDS011;15039;50.830;4.730;2022-09-17T04:50:19;9.80;;;1.98;;
27618;SDS011;15039;50.830;4.730;2022-09-17T04:52:45;9.50;;;1.88;;
27618;SDS011;15039;50.830;4.730;2022-09-17T04:55:13;8.98;;;2.50;;
27618;SDS011;15039;50.830;4.730;2022-09-17T04:57:46;11.23;;;2.03;;
27618;SDS011;15039;50.830;4.730;2022-09-17T05:00:20;6.22;;;1.77;;
27618;SDS011;15039;50.830;4.730;2022-09-17T05:02:51;6.93;;;2.22;;
27618;SDS011;15039;50.830;4.730;2022-09-17T05:05:18;8.93;;;1.90;;
27618;SDS011;15039;50.830;4.730;2022-09-17T05:07:45;12.95;;;2.47;;
27618;SDS011;15039;50.830;4.730;2022-09-17T05:10:11;13.75;;;2.58;;
27618;SDS011;15039;50.830;4.730;2022-09-17T05:12:39;8.13;;;1.97;;
27618;SDS011;15039;50.830;4.730;2022-09-17T05:15:05;10.18;;;2.10;;
27618;SDS011;15039;50.830;4.730;2022-09-17T05:17:30;11.30;;;2.58;;
27618;SDS011;15039;50.830;4.730;2022-09-17T05:19:57;11.07;;;1.85;;
27618;SDS011;15039;50.830;4.730;2022-09-17T05:22:23;8.95;;;2.28;;
27618;SDS011;15039;50.830;4.730;2022-09-17T05:24:51;3.40;;;1.88;;
27618;SDS011;15039;50.830;4.730;2022-09-17T05:27:17;8.20;;;1.70;;
27618;SDS011;15039;50.830;4.730;2022-09-17T05:29:43;8.45;;;2.03;;
27618;SDS011;15039;50.830;4.730;2022-09-17T05:32:09;6.75;;;1.77;;
27618;SDS011;15039;50.830;4.730;2022-09-17T05:34:35;5.80;;;1.75;;
27618;SDS011;15039;50.830;4.730;2022-09-17T05:37:01;8.75;;;2.30;;
27618;SDS011;15039;50.830;4.730;2022-09-17T05:39:26;9.38;;;2.00;;
27618;SDS011;15039;50.830;4.730;2022-09-17T05:41:53;12.65;;;2.42;;
27618;SDS011;15039;50.830;4.730;2022-09-17T05:44:19;7.95;;;2.15;;
27618;SDS011;15039;50.830;4.730;2022-09-17T05:46:45;8.50;;;1.70;;
27618;SDS011;15039;50.830;4.730;2022-09-17T05:49:14;7.93;;;1.90;;
27618;SDS011;15039;50.830;4.730;2022-09-17T05:51:40;6.93;;;2.65;;
27618;SDS011;15039;50.830;4.730;2022-09-17T05:54:06;8.70;;;2.88;;
27618;SDS011;15039;50.830;4.730;2022-09-17T05:56:33;12.50;;;2.78;;
27618;SDS011;15039;50.830;4.730;2022-09-17T05:58:58;13.32;;;2.85;;
27618;SDS011;15039;50.830;4.730;2022-09-17T06:01:24;11.20;;;2.47;;
27618;SDS011;15039;50.830;4.730;2022-09-17T06:03:50;11.32;;;2.50;;
27618;SDS011;15039;50.830;4.730;2022-09-17T06:06:15;13.07;;;2.47;;
27618;SDS011;15039;50.830;4.730;2022-09-17T06:08:42;8.73;;;2.40;;
27618;SDS011;15039;50.830;4.730;2022-09-17T06:11:08;13.73;;;2.67;;
27618;SDS011;15039;50.830;4.730;2022-09-17T06:13:34;8.98;;;2.38;;
27618;SDS011;15039;50.830;4.730;2022-09-17T06:16:00;6.57;;;2.15;;
27618;SDS011;15039;50.830;4.730;2022-09-17T06:18:27;10.10;;;2.25;;
27618;SDS011;15039;50.830;4.730;2022-09-17T06:21:00;12.43;;;2.25;;
27618;SDS011;15039;50.830;4.730;2022-09-17T06:23:27;10.30;;;2.03;;
27618;SDS011;15039;50.830;4.730;2022-09-17T06:25:59;7.43;;;1.90;;
27618;SDS011;15039;50.830;4.730;2022-09-17T06:28:27;7.80;;;1.90;;
27618;SDS011;15039;50.830;4.730;2022-09-17T06:30:53;9.15;;;1.60;;
27618;SDS011;15039;50.830;4.730;2022-09-17T06:33:22;8.18;;;2.15;;
27618;SDS011;15039;50.830;4.730;2022-09-17T06:35:57;10.40;;;2.20;;
27618;SDS011;15039;50.830;4.730;2022-09-17T06:38:28;7.80;;;1.80;;
27618;SDS011;15039;50.830;4.730;2022-09-17T06:40:59;6.85;;;1.80;;
27618;SDS011;15039;50.830;4.730;2022-09-17T06:43:26;6.97;;;1.83;;
27618;SDS011;15039;50.830;4.730;2022-09-17T06:45:53;10.48;;;2.22;;
27618;SDS011;15039;50.830;4.730;2022-09-17T06:48:20;8.38;;;1.67;;
27618;SDS011;15039;50.830;4.730;2022-09-17T06:50:47;10.07;;;1.80;;
27618;SDS011;15039;50.830;4.730;2022-09-17T06:53:13;9.55;;;2.05;;
27618;SDS011;15039;50.830;4.730;2022-09-17T06:55:38;6.40;;;1.40;;
27618;SDS011;15039;50.830;4.730;2022-09-17T06:58:04;7.50;;;2.20;;
27618;SDS011;15039;50.830;4.730;2022-09-17T07:00:29;6.88;;;2.08;;
27618;SDS011;15039;50.830;4.730;2022-09-17T07:02:58;9.82;;;2.17;;
27618;SDS011;15039;50.830;4.730;2022-09-17T07:05:25;6.72;;;1.30;;
27618;SDS011;15039;50.830;4.730;2022-09-17T07:07:51;7.47;;;1.98;;
27618;SDS011;15039;50.830;4.730;2022-09-17T07:10:17;10.65;;;1.95;;
27618;SDS011;15039;50.830;4.730;2022-09-17T07:12:47;8.02;;;1.63;;
27618;SDS011;15039;50.830;4.730;2022-09-17T07:15:14;6.82;;;1.90;;
27618;SDS011;15039;50.830;4.730;2022-09-17T07:17:40;6.85;;;1.63;;
27618;SDS011;15039;50.830;4.730;2022-09-17T07:20:07;10.77;;;2.10;;
27618;SDS011;15039;50.830;4.730;2022-09-17T07:22:33;5.82;;;1.83;;
27618;SDS011;15039;50.830;4.730;2022-09-17T07:24:59;8.95;;;2.15;;
27618;SDS011;15039;50.830;4.730;2022-09-17T07:27:28;6.97;;;2.00;;
27618;SDS011;15039;50.830;4.730;2022-09-17T07:29:55;5.05;;;2.17;;
27618;SDS011;15039;50.830;4.730;2022-09-17T07:32:21;8.20;;;2.25;;
27618;SDS011;15039;50.830;4.730;2022-09-17T07:34:48;4.72;;;2.03;;
27618;SDS011;15039;50.830;4.730;2022-09-17T07:37:14;5.30;;;1.73;;
27618;SDS011;15039;50.830;4.730;2022-09-17T07:39:42;4.65;;;1.40;;
27618;SDS011;15039;50.830;4.730;2022-09-17T07:42:08;6.18;;;1.33;;
27618;SDS011;15039;50.830;4.730;2022-09-17T07:44:34;10.38;;;2.03;;
27618;SDS011;15039;50.830;4.730;2022-09-17T07:47:00;6.30;;;1.13;;
27618;SDS011;15039;50.830;4.730;2022-09-17T07:49:26;8.52;;;1.95;;
27618;SDS011;15039;50.830;4.730;2022-09-17T07:51:52;8.57;;;1.90;;
27618;SDS011;15039;50.830;4.730;2022-09-17T07:54:19;6.82;;;1.80;;
27618;SDS011;15039;50.830;4.730;2022-09-17T07:56:44;8.27;;;1.70;;
27618;SDS011;15039;50.830;4.730;2022-09-17T07:59:10;6.22;;;1.30;;
27618;SDS011;15039;50.830;4.730;2022-09-17T08:01:36;6.72;;;1.42;;
27618;SDS011;15039;50.830;4.730;2022-09-17T08:04:02;6.72;;;2.00;;
27618;SDS011;15039;50.830;4.730;2022-09-17T08:06:28;8.32;;;1.58;;
27618;SDS011;15039;50.830;4.730;2022-09-17T08:08:55;6.90;;;1.70;;
27618;SDS011;15039;50.830;4.730;2022-09-17T08:11:23;7.53;;;1.55;;
27618;SDS011;15039;50.830;4.730;2022-09-17T08:13:51;9.55;;;1.60;;
27618;SDS011;15039;50.830;4.730;2022-09-17T08:16:18;6.60;;;1.63;;
27618;SDS011;15039;50.830;4.730;2022-09-17T08:18:45;5.80;;;1.88;;
27618;SDS011;15039;50.830;4.730;2022-09-17T08:21:15;7.38;;;1.55;;
27618;SDS011;15039;50.830;4.730;2022-09-17T08:23:42;6.82;;;1.60;;
27618;SDS011;15039;50.830;4.730;2022-09-17T08:26:18;5.50;;;1.40;;
27618;SDS011;15039;50.830;4.730;2022-09-17T08:28:50;7.00;;;1.75;;
27618;SDS011;15039;50.830;4.730;2022-09-17T08:31:19;5.82;;;1.42;;
27618;SDS011;15039;50.830;4.730;2022-09-17T08:33:47;5.25;;;1.20;;
27618;SDS011;15039;50.830;4.730;2022-09-17T08:36:16;5.88;;;1.60;;
27618;SDS011;15039;50.830;4.730;2022-09-17T08:38:43;7.93;;;1.80;;
27618;SDS011;15039;50.830;4.730;2022-09-17T08:41:18;6.65;;;1.42;;
27618;SDS011;15039;50.830;4.730;2022-09-17T08:46:20;8.47;;;1.37;;
27618;SDS011;15039;50.830;4.730;2022-09-17T08:54:26;5.95;;;1.58;;
27618;SDS011;15039;50.830;4.730;2022-09-17T08:59:41;4.50;;;1.50;;
27618;SDS011;15039;50.830;4.730;2022-09-17T09:05:50;4.43;;;1.98;;
27618;SDS011;15039;50.830;4.730;2022-09-17T09:11:13;3.67;;;1.30;;
27618;SDS011;15039;50.830;4.730;2022-09-17T09:13:48;6.32;;;1.67;;
27618;SDS011;15039;50.830;4.730;2022-09-17T09:16:32;4.10;;;1.52;;
27618;SDS011;15039;50.830;4.730;2022-09-17T09:19:21;5.78;;;1.33;;
27618;SDS011;15039;50.830;4.730;2022-09-17T09:24:36;3.38;;;1.20;;
27618;SDS011;15039;50.830;4.730;2022-09-17T09:27:17;6.38;;;1.10;;
27618;SDS011;15039;50.830;4.730;2022-09-17T09:35:26;8.02;;;1.80;;
27618;SDS011;15039;50.830;4.730;2022-09-17T09:51:39;4.03;;;0.80;;
27618;SDS011;15039;50.830;4.730;2022-09-17T09:56:57;4.50;;;1.50;;
27618;SDS011;15039;50.830;4.730;2022-09-17T09:59:29;4.80;;;1.10;;
27618;SDS011;15039;50.830;4.730;2022-09-17T10:01:55;5.05;;;1.20;;
27618;SDS011;15039;50.830;4.730;2022-09-17T10:04:25;4.95;;;0.90;;
27618;SDS011;15039;50.830;4.730;2022-09-17T10:07:02;3.25;;;1.00;;
27618;SDS011;15039;50.830;4.730;2022-09-17T10:09:33;3.30;;;1.27;;
27618;SDS011;15039;50.830;4.730;2022-09-17T10:14:33;5.53;;;1.45;;
27618;SDS011;15039;50.830;4.730;2022-09-17T10:17:10;6.23;;;2.03;;
27618;SDS011;15039;50.830;4.730;2022-09-17T10:22:32;4.22;;;1.25;;
27618;SDS011;15039;50.830;4.730;2022-09-17T10:24:59;3.08;;;1.02;;
27618;SDS011;15039;50.830;4.730;2022-09-17T10:27:27;6.53;;;1.30;;
27618;SDS011;15039;50.830;4.730;2022-09-17T10:32:32;4.13;;;0.77;;
27618;SDS011;15039;50.830;4.730;2022-09-17T10:34:59;2.30;;;0.70;;
27618;SDS011;15039;50.830;4.730;2022-09-17T10:38:01;4.88;;;0.90;;
27618;SDS011;15039;50.830;4.730;2022-09-17T10:43:36;2.38;;;0.70;;
27618;SDS011;15039;50.830;4.730;2022-09-17T10:45:43;7.32;;;0.75;;
27618;SDS011;15039;50.830;4.730;2022-09-17T10:48:20;3.38;;;0.82;;
27618;SDS011;15039;50.830;4.730;2022-09-17T10:50:47;1.75;;;0.70;;
27618;SDS011;15039;50.830;4.730;2022-09-17T10:53:17;1.50;;;0.65;;
27618;SDS011;15039;50.830;4.730;2022-09-17T11:01:10;4.25;;;1.10;;
27618;SDS011;15039;50.830;4.730;2022-09-17T11:12:00;2.80;;;0.88;;
27618;SDS011;15039;50.830;4.730;2022-09-17T11:25:43;3.45;;;0.70;;
27618;SDS011;15039;50.830;4.730;2022-09-17T11:40:11;2.15;;;0.70;;
27618;SDS011;15039;50.830;4.730;2022-09-17T11:42:48;4.63;;;1.25;;
27618;SDS011;15039;50.830;4.730;2022-09-17T11:45:16;4.60;;;1.00;;
27618;SDS011;15039;50.830;4.730;2022-09-17T11:47:55;1.92;;;0.77;;
27618;SDS011;15039;50.830;4.730;2022-09-17T11:50:34;2.95;;;0.85;;
27618;SDS011;15039;50.830;4.730;2022-09-17T11:53:23;2.67;;;0.70;;
27618;SDS011;15039;50.830;4.730;2022-09-17T11:55:59;2.33;;;0.70;;
27618;SDS011;15039;50.830;4.730;2022-09-17T12:09:51;5.93;;;1.00;;
27618;SDS011;15039;50.830;4.730;2022-09-17T12:12:23;2.30;;;0.77;;
27618;SDS011;15039;50.830;4.730;2022-09-17T12:14:59;5.82;;;0.90;;
27618;SDS011;15039;50.830;4.730;2022-09-17T12:17:38;3.08;;;0.98;;
27618;SDS011;15039;50.830;4.730;2022-09-17T12:20:23;1.43;;;0.97;;
27618;SDS011;15039;50.830;4.730;2022-09-17T12:22:55;8.95;;;2.65;;
27618;SDS011;15039;50.830;4.730;2022-09-17T12:25:30;5.00;;;1.00;;
27618;SDS011;15039;50.830;4.730;2022-09-17T12:28:20;6.47;;;0.90;;
27618;SDS011;15039;50.830;4.730;2022-09-17T12:31:13;5.28;;;1.10;;
27618;SDS011;15039;50.830;4.730;2022-09-17T12:33:49;3.47;;;0.90;;
27618;SDS011;15039;50.830;4.730;2022-09-17T12:44:38;4.47;;;1.48;;
27618;SDS011;15039;50.830;4.730;2022-09-17T12:53:06;2.75;;;1.15;;
27618;SDS011;15039;50.830;4.730;2022-09-17T12:56:00;7.55;;;1.52;;
27618;SDS011;15039;50.830;4.730;2022-09-17T13:01:47;4.53;;;1.10;;
27618;SDS011;15039;50.830;4.730;2022-09-17T13:12:46;5.10;;;1.20;;
27618;SDS011;15039;50.830;4.730;2022-09-17T13:21:06;4.93;;;1.30;;
27618;SDS011;15039;50.830;4.730;2022-09-17T13:23:41;7.68;;;1.65;;
27618;SDS011;15039;50.830;4.730;2022-09-17T13:26:17;8.82;;;1.20;;
27618;SDS011;15039;50.830;4.730;2022-09-17T13:28:49;4.82;;;1.35;;
27618;SDS011;15039;50.830;4.730;2022-09-17T13:34:03;5.82;;;1.67;;
27618;SDS011;15039;50.830;4.730;2022-09-17T13:36:50;5.30;;;1.52;;
27618;SDS011;15039;50.830;4.730;2022-09-17T13:44:51;5.32;;;1.42;;
27618;SDS011;15039;50.830;4.730;2022-09-17T13:47:28;7.45;;;1.50;;
27618;SDS011;15039;50.830;4.730;2022-09-17T13:50:02;4.30;;;1.63;;
27618;SDS011;15039;50.830;4.730;2022-09-17T13:52:47;6.18;;;1.50;;
27618;SDS011;15039;50.830;4.730;2022-09-17T14:00:53;4.00;;;1.20;;
27618;SDS011;15039;50.830;4.730;2022-09-17T14:16:31;5.80;;;1.40;;
27618;SDS011;15039;50.830;4.730;2022-09-17T14:30:21;3.22;;;1.23;;
27618;SDS011;15039;50.830;4.730;2022-09-17T14:32:55;6.18;;;1.13;;
27618;SDS011;15039;50.830;4.730;2022-09-17T14:35:44;4.72;;;1.25;;
27618;SDS011;15039;50.830;4.730;2022-09-17T14:38:20;4.80;;;1.15;;
27618;SDS011;15039;50.830;4.730;2022-09-17T14:41:32;1.48;;;0.85;;
27618;SDS011;15039;50.830;4.730;2022-09-17T14:46:34;2.40;;;1.02;;
27618;SDS011;15039;50.830;4.730;2022-09-17T14:51:59;1.35;;;0.70;;
27618;SDS011;15039;50.830;4.730;2022-09-17T14:54:26;1.40;;;0.50;;
27618;SDS011;15039;50.830;4.730;2022-09-17T15:07:41;3.55;;;0.82;;
27618;SDS011;15039;50.830;4.730;2022-09-17T15:10:14;2.40;;;0.70;;
27618;SDS011;15039;50.830;4.730;2022-09-17T15:12:41;2.55;;;0.77;;
27618;SDS011;15039;50.830;4.730;2022-09-17T15:15:22;1.75;;;0.57;;
27618;SDS011;15039;50.830;4.730;2022-09-17T15:17:54;3.70;;;0.70;;
27618;SDS011;15039;50.830;4.730;2022-09-17T15:20:31;2.83;;;0.98;;
27618;SDS011;15039;50.830;4.730;2022-09-17T15:23:11;3.08;;;0.70;;
27618;SDS011;15039;50.830;4.730;2022-09-17T15:25:43;4.53;;;1.02;;
27618;SDS011;15039;50.830;4.730;2022-09-17T15:28:22;3.10;;;0.68;;
27618;SDS011;15039;50.830;4.730;2022-09-17T15:30:53;3.55;;;0.90;;
27618;SDS011;15039;50.830;4.730;2022-09-17T15:33:19;5.70;;;0.98;;
27618;SDS011;15039;50.830;4.730;2022-09-17T15:35:58;5.35;;;0.90;;
27618;SDS011;15039;50.830;4.730;2022-09-17T15:38:47;1.80;;;0.70;;
27618;SDS011;15039;50.830;4.730;2022-09-17T15:43:44;4.85;;;0.82;;
27618;SDS011;15039;50.830;4.730;2022-09-17T15:48:45;1.25;;;0.60;;
27618;SDS011;15039;50.830;4.730;2022-09-17T15:51:26;5.72;;;0.90;;
27618;SDS011;15039;50.830;4.730;2022-09-17T15:54:01;4.30;;;0.60;;
27618;SDS011;15039;50.830;4.730;2022-09-17T15:56:34;4.30;;;1.17;;
27618;SDS011;15039;50.830;4.730;2022-09-17T15:59:03;3.55;;;1.02;;
27618;SDS011;15039;50.830;4.730;2022-09-17T16:07:01;5.00;;;0.95;;
27618;SDS011;15039;50.830;4.730;2022-09-17T16:09:38;4.38;;;0.95;;
27618;SDS011;15039;50.830;4.730;2022-09-17T16:12:24;4.78;;;1.00;;
27618;SDS011;15039;50.830;4.730;2022-09-17T16:14:53;5.28;;;1.08;;
27618;SDS011;15039;50.830;4.730;2022-09-17T16:17:25;2.58;;;1.25;;
27618;SDS011;15039;50.830;4.730;2022-09-17T16:22:44;1.83;;;0.80;;
27618;SDS011;15039;50.830;4.730;2022-09-17T16:25:12;3.95;;;1.27;;
27618;SDS011;15039;50.830;4.730;2022-09-17T16:27:42;3.72;;;0.90;;
27618;SDS011;15039;50.830;4.730;2022-09-17T16:30:30;4.70;;;1.10;;
27618;SDS011;15039;50.830;4.730;2022-09-17T16:32:57;3.95;;;1.33;;
27618;SDS011;15039;50.830;4.730;2022-09-17T16:35:24;4.65;;;1.48;;
27618;SDS011;15039;50.830;4.730;2022-09-17T16:37:51;3.35;;;1.10;;
27618;SDS011;15039;50.830;4.730;2022-09-17T16:40:18;4.82;;;1.10;;
27618;SDS011;15039;50.830;4.730;2022-09-17T16:42:45;6.97;;;1.55;;
27618;SDS011;15039;50.830;4.730;2022-09-17T16:45:11;5.05;;;1.45;;
27618;SDS011;15039;50.830;4.730;2022-09-17T16:47:38;4.90;;;1.05;;
27618;SDS011;15039;50.830;4.730;2022-09-17T16:50:07;3.03;;;1.20;;
27618;SDS011;15039;50.830;4.730;2022-09-17T16:52:35;5.22;;;1.10;;
27618;SDS011;15039;50.830;4.730;2022-09-17T16:55:03;6.45;;;1.15;;
27618;SDS011;15039;50.830;4.730;2022-09-17T16:57:30;2.63;;;0.90;;
27618;SDS011;15039;50.830;4.730;2022-09-17T16:59:56;4.28;;;1.30;;
27618;SDS011;15039;50.830;4.730;2022-09-17T17:02:26;4.22;;;1.52;;
27618;SDS011;15039;50.830;4.730;2022-09-17T17:04:52;2.88;;;1.58;;
27618;SDS011;15039;50.830;4.730;2022-09-17T17:07:19;5.15;;;1.70;;
27618;SDS011;15039;50.830;4.730;2022-09-17T17:09:46;5.00;;;1.98;;
27618;SDS011;15039;50.830;4.730;2022-09-17T17:12:11;6.60;;;1.70;;
27618;SDS011;15039;50.830;4.730;2022-09-17T17:14:37;4.72;;;1.48;;
27618;SDS011;15039;50.830;4.730;2022-09-17T17:17:03;3.75;;;1.13;;
27618;SDS011;15039;50.830;4.730;2022-09-17T17:19:28;3.72;;;1.15;;
27618;SDS011;15039;50.830;4.730;2022-09-17T17:21:55;5.90;;;1.10;;
27618;SDS011;15039;50.830;4.730;2022-09-17T17:24:21;5.07;;;1.40;;
27618;SDS011;15039;50.830;4.730;2022-09-17T17:26:47;2.97;;;1.20;;
27618;SDS011;15039;50.830;4.730;2022-09-17T17:29:15;4.57;;;1.63;;
27618;SDS011;15039;50.830;4.730;2022-09-17T17:31:40;8.00;;;1.77;;
27618;SDS011;15039;50.830;4.730;2022-09-17T17:34:07;3.30;;;1.30;;
27618;SDS011;15039;50.830;4.730;2022-09-17T17:36:32;4.20;;;1.50;;
27618;SDS011;15039;50.830;4.730;2022-09-17T17:38:58;4.47;;;1.65;;
27618;SDS011;15039;50.830;4.730;2022-09-17T17:41:25;7.18;;;2.13;;
27618;SDS011;15039;50.830;4.730;2022-09-17T17:43:53;4.13;;;2.08;;
27618;SDS011;15039;50.830;4.730;2022-09-17T17:46:20;7.10;;;2.35;;
27618;SDS011;15039;50.830;4.730;2022-09-17T17:48:47;5.88;;;1.70;;
27618;SDS011;15039;50.830;4.730;2022-09-17T17:51:14;6.40;;;1.60;;
27618;SDS011;15039;50.830;4.730;2022-09-17T17:53:42;5.75;;;1.90;;
27618;SDS011;15039;50.830;4.730;2022-09-17T17:56:08;5.90;;;1.95;;
27618;SDS011;15039;50.830;4.730;2022-09-17T17:58:36;6.13;;;1.80;;
27618;SDS011;15039;50.830;4.730;2022-09-17T18:01:15;5.28;;;1.60;;
27618;SDS011;15039;50.830;4.730;2022-09-17T18:03:45;5.95;;;1.70;;
27618;SDS011;15039;50.830;4.730;2022-09-17T18:06:10;5.25;;;1.88;;
27618;SDS011;15039;50.830;4.730;2022-09-17T18:08:37;6.95;;;1.80;;
27618;SDS011;15039;50.830;4.730;2022-09-17T18:11:05;5.75;;;1.90;;
27618;SDS011;15039;50.830;4.730;2022-09-17T18:13:34;4.45;;;1.73;;
27618;SDS011;15039;50.830;4.730;2022-09-17T18:16:01;8.32;;;1.98;;
27618;SDS011;15039;50.830;4.730;2022-09-17T18:18:32;2.97;;;1.55;;
27618;SDS011;15039;50.830;4.730;2022-09-17T18:21:03;6.43;;;2.25;;
27618;SDS011;15039;50.830;4.730;2022-09-17T18:23:31;6.82;;;2.30;;
27618;SDS011;15039;50.830;4.730;2022-09-17T18:25:58;4.95;;;1.80;;
27618;SDS011;15039;50.830;4.730;2022-09-17T18:28:25;5.53;;;2.00;;
27618;SDS011;15039;50.830;4.730;2022-09-17T18:30:53;7.05;;;2.05;;
27618;SDS011;15039;50.830;4.730;2022-09-17T18:33:20;7.15;;;2.20;;
27618;SDS011;15039;50.830;4.730;2022-09-17T18:38:14;7.07;;;2.30;;
27618;SDS011;15039;50.830;4.730;2022-09-17T18:40:40;8.38;;;2.08;;
27618;SDS011;15039;50.830;4.730;2022-09-17T18:43:06;8.23;;;2.28;;
27618;SDS011;15039;50.830;4.730;2022-09-17T18:45:32;7.57;;;2.33;;
27618;SDS011;15039;50.830;4.730;2022-09-17T18:47:59;5.15;;;1.90;;
27618;SDS011;15039;50.830;4.730;2022-09-17T18:50:25;6.85;;;2.03;;
27618;SDS011;15039;50.830;4.730;2022-09-17T18:52:51;7.97;;;2.30;;
27618;SDS011;15039;50.830;4.730;2022-09-17T18:55:17;4.88;;;1.75;;
27618;SDS011;15039;50.830;4.730;2022-09-17T18:57:42;4.60;;;2.13;;
27618;SDS011;15039;50.830;4.730;2022-09-17T19:00:08;6.88;;;2.28;;
27618;SDS011;15039;50.830;4.730;2022-09-17T19:02:37;5.57;;;2.40;;
27618;SDS011;15039;50.830;4.730;2022-09-17T19:05:03;4.38;;;1.58;;
27618;SDS011;15039;50.830;4.730;2022-09-17T19:07:30;7.85;;;2.00;;
27618;SDS011;15039;50.830;4.730;2022-09-17T19:09:56;6.45;;;2.30;;
27618;SDS011;15039;50.830;4.730;2022-09-17T19:12:22;5.57;;;1.73;;
27618;SDS011;15039;50.830;4.730;2022-09-17T19:14:48;8.07;;;1.80;;
27618;SDS011;15039;50.830;4.730;2022-09-17T19:17:14;6.85;;;1.98;;